sensor_id;sensor_type;location;lat;lon;timestamp;P1;durP1;ratioP1;P2;durP2;ratioP2
57341;SDS011;43175;51.002;18.316;2023-04-01T00:00:06;15.30;;;7.30;;
57341;SDS011;43175;51.002;18.316;2023-04-01T00:02:33;16.60;;;7.20;;
57341;SDS011;43175;51.002;18.316;2023-04-01T00:04:58;13.40;;;6.70;;
57341;SDS011;43175;51.002;18.316;2023-04-01T00:07:24;13.00;;;6.50;;
57341;SDS011;43175;51.002;18.316;2023-04-01T00:09:50;15.40;;;7.40;;
57341;SDS011;43175;51.002;18.316;2023-04-01T00:12:16;14.50;;;7.10;;
57341;SDS011;43175;51.002;18.316;2023-04-01T00:14:42;14.00;;;7.20;;
57341;SDS011;43175;51.002;18.316;2023-04-01T00:17:07;14.10;;;7.30;;
57341;SDS011;43175;51.002;18.316;2023-04-01T00:19:33;16.50;;;8.90;;
57341;SDS011;43175;51.002;18.316;2023-04-01T00:21:58;14.60;;;7.70;;
57341;SDS011;43175;51.002;18.316;2023-04-01T00:24:24;14.20;;;7.00;;
57341;SDS011;43175;51.002;18.316;2023-04-01T00:26:49;15.10;;;7.20;;
57341;SDS011;43175;51.002;18.316;2023-04-01T00:29:15;16.60;;;7.70;;
57341;SDS011;43175;51.002;18.316;2023-04-01T00:31:40;14.00;;;7.00;;
57341;SDS011;43175;51.002;18.316;2023-04-01T00:34:06;14.10;;;7.10;;
57341;SDS011;43175;51.002;18.316;2023-04-01T00:36:31;15.00;;;7.50;;
57341;SDS011;43175;51.002;18.316;2023-04-01T00:38:58;14.90;;;7.80;;
57341;SDS011;43175;51.002;18.316;2023-04-01T00:41:26;15.80;;;8.60;;
57341;SDS011;43175;51.002;18.316;2023-04-01T00:44:11;14.10;;;7.70;;
57341;SDS011;43175;51.002;18.316;2023-04-01T00:46:44;13.80;;;7.30;;
57341;SDS011;43175;51.002;18.316;2023-04-01T00:49:10;14.00;;;7.20;;
57341;SDS011;43175;51.002;18.316;2023-04-01T00:51:36;14.60;;;7.40;;
57341;SDS011;43175;51.002;18.316;2023-04-01T00:54:03;13.00;;;6.90;;
57341;SDS011;43175;51.002;18.316;2023-04-01T00:56:30;13.80;;;7.20;;
57341;SDS011;43175;51.002;18.316;2023-04-01T00:59:00;15.90;;;7.90;;
57341;SDS011;43175;51.002;18.316;2023-04-01T01:01:28;15.30;;;7.90;;
57341;SDS011;43175;51.002;18.316;2023-04-01T01:03:55;13.90;;;7.50;;
57341;SDS011;43175;51.002;18.316;2023-04-01T01:11:52;16.60;;;8.50;;
57341;SDS011;43175;51.002;18.316;2023-04-01T01:27:23;17.80;;;9.40;;
57341;SDS011;43175;51.002;18.316;2023-04-01T01:33:28;20.00;;;11.20;;
57341;SDS011;43175;51.002;18.316;2023-04-01T01:36:06;17.50;;;9.90;;
57341;SDS011;43175;51.002;18.316;2023-04-01T01:38:35;18.70;;;11.00;;
57341;SDS011;43175;51.002;18.316;2023-04-01T01:41:02;18.70;;;10.80;;
57341;SDS011;43175;51.002;18.316;2023-04-01T01:43:30;16.60;;;9.70;;
57341;SDS011;43175;51.002;18.316;2023-04-01T01:45:59;16.20;;;10.00;;
57341;SDS011;43175;51.002;18.316;2023-04-01T01:48:28;17.60;;;10.30;;
57341;SDS011;43175;51.002;18.316;2023-04-01T01:50:54;16.70;;;10.20;;
57341;SDS011;43175;51.002;18.316;2023-04-01T01:53:20;18.60;;;10.50;;
57341;SDS011;43175;51.002;18.316;2023-04-01T01:55:46;20.60;;;10.30;;
57341;SDS011;43175;51.002;18.316;2023-04-01T01:58:27;18.40;;;10.30;;
57341;SDS011;43175;51.002;18.316;2023-04-01T02:01:03;18.50;;;10.00;;
57341;SDS011;43175;51.002;18.316;2023-04-01T02:03:35;16.70;;;9.50;;
57341;SDS011;43175;51.002;18.316;2023-04-01T02:06:03;16.30;;;9.50;;
57341;SDS011;43175;51.002;18.316;2023-04-01T02:08:39;16.10;;;9.20;;
57341;SDS011;43175;51.002;18.316;2023-04-01T02:11:09;16.40;;;9.50;;
57341;SDS011;43175;51.002;18.316;2023-04-01T02:13:48;17.70;;;10.00;;
57341;SDS011;43175;51.002;18.316;2023-04-01T02:16:21;17.40;;;9.40;;
57341;SDS011;43175;51.002;18.316;2023-04-01T02:19:09;16.60;;;9.60;;
57341;SDS011;43175;51.002;18.316;2023-04-01T02:21:35;17.90;;;10.50;;
57341;SDS011;43175;51.002;18.316;2023-04-01T02:24:03;19.60;;;11.00;;
57341;SDS011;43175;51.002;18.316;2023-04-01T02:26:31;16.90;;;9.70;;
57341;SDS011;43175;51.002;18.316;2023-04-01T02:28:57;17.10;;;9.70;;
57341;SDS011;43175;51.002;18.316;2023-04-01T02:31:24;17.80;;;9.30;;
57341;SDS011;43175;51.002;18.316;2023-04-01T02:33:50;17.00;;;9.70;;
57341;SDS011;43175;51.002;18.316;2023-04-01T02:36:16;18.20;;;10.50;;
57341;SDS011;43175;51.002;18.316;2023-04-01T02:38:43;17.00;;;9.40;;
57341;SDS011;43175;51.002;18.316;2023-04-01T02:41:10;17.50;;;10.10;;
57341;SDS011;43175;51.002;18.316;2023-04-01T02:43:36;18.20;;;10.60;;
57341;SDS011;43175;51.002;18.316;2023-04-01T02:46:01;15.90;;;9.80;;
57341;SDS011;43175;51.002;18.316;2023-04-01T02:48:27;16.00;;;9.70;;
57341;SDS011;43175;51.002;18.316;2023-04-01T02:50:53;18.50;;;10.10;;
57341;SDS011;43175;51.002;18.316;2023-04-01T02:53:19;16.30;;;9.90;;
57341;SDS011;43175;51.002;18.316;2023-04-01T02:55:45;16.20;;;9.30;;
57341;SDS011;43175;51.002;18.316;2023-04-01T02:58:10;15.70;;;9.50;;
57341;SDS011;43175;51.002;18.316;2023-04-01T03:00:36;16.30;;;9.50;;
57341;SDS011;43175;51.002;18.316;2023-04-01T03:03:02;16.30;;;9.10;;
57341;SDS011;43175;51.002;18.316;2023-04-01T03:05:28;16.50;;;9.10;;
57341;SDS011;43175;51.002;18.316;2023-04-01T03:07:54;15.80;;;8.90;;
57341;SDS011;43175;51.002;18.316;2023-04-01T03:10:19;16.00;;;8.90;;
57341;SDS011;43175;51.002;18.316;2023-04-01T03:12:45;18.30;;;9.70;;
57341;SDS011;43175;51.002;18.316;2023-04-01T03:15:12;15.00;;;8.90;;
57341;SDS011;43175;51.002;18.316;2023-04-01T03:17:39;17.40;;;9.50;;
57341;SDS011;43175;51.002;18.316;2023-04-01T03:20:06;15.50;;;9.40;;
57341;SDS011;43175;51.002;18.316;2023-04-01T03:22:33;16.30;;;9.10;;
57341;SDS011;43175;51.002;18.316;2023-04-01T03:25:00;15.90;;;9.40;;
57341;SDS011;43175;51.002;18.316;2023-04-01T03:27:26;17.70;;;9.50;;
57341;SDS011;43175;51.002;18.316;2023-04-01T03:29:52;16.60;;;9.40;;
57341;SDS011;43175;51.002;18.316;2023-04-01T03:32:18;15.10;;;8.80;;
57341;SDS011;43175;51.002;18.316;2023-04-01T03:34:43;16.80;;;9.70;;
57341;SDS011;43175;51.002;18.316;2023-04-01T03:37:09;17.80;;;9.40;;
57341;SDS011;43175;51.002;18.316;2023-04-01T03:39:35;17.70;;;8.90;;
57341;SDS011;43175;51.002;18.316;2023-04-01T03:42:00;16.30;;;9.40;;
57341;SDS011;43175;51.002;18.316;2023-04-01T03:44:26;14.80;;;8.80;;
57341;SDS011;43175;51.002;18.316;2023-04-01T03:46:51;15.20;;;8.90;;
57341;SDS011;43175;51.002;18.316;2023-04-01T03:49:17;15.40;;;8.80;;
57341;SDS011;43175;51.002;18.316;2023-04-01T03:51:43;16.50;;;9.00;;
57341;SDS011;43175;51.002;18.316;2023-04-01T03:54:09;16.70;;;9.30;;
57341;SDS011;43175;51.002;18.316;2023-04-01T03:56:35;17.20;;;9.50;;
57341;SDS011;43175;51.002;18.316;2023-04-01T03:59:02;15.40;;;8.70;;
57341;SDS011;43175;51.002;18.316;2023-04-01T04:01:29;15.40;;;9.10;;
57341;SDS011;43175;51.002;18.316;2023-04-01T04:03:55;15.10;;;9.00;;
57341;SDS011;43175;51.002;18.316;2023-04-01T04:06:21;16.70;;;9.40;;
57341;SDS011;43175;51.002;18.316;2023-04-01T04:08:48;15.60;;;8.70;;
57341;SDS011;43175;51.002;18.316;2023-04-01T04:11:13;14.30;;;8.50;;
57341;SDS011;43175;51.002;18.316;2023-04-01T04:13:39;16.80;;;9.00;;
57341;SDS011;43175;51.002;18.316;2023-04-01T04:16:05;16.30;;;9.20;;
57341;SDS011;43175;51.002;18.316;2023-04-01T04:18:32;15.90;;;8.40;;
57341;SDS011;43175;51.002;18.316;2023-04-01T04:20:58;18.10;;;9.30;;
57341;SDS011;43175;51.002;18.316;2023-04-01T04:23:23;15.40;;;9.10;;
57341;SDS011;43175;51.002;18.316;2023-04-01T04:26:02;15.50;;;9.10;;
57341;SDS011;43175;51.002;18.316;2023-04-01T04:28:30;14.70;;;8.50;;
57341;SDS011;43175;51.002;18.316;2023-04-01T04:30:56;16.80;;;9.00;;
57341;SDS011;43175;51.002;18.316;2023-04-01T04:33:22;14.90;;;8.60;;
57341;SDS011;43175;51.002;18.316;2023-04-01T04:35:48;16.10;;;9.40;;
57341;SDS011;43175;51.002;18.316;2023-04-01T04:38:14;15.90;;;8.90;;
57341;SDS011;43175;51.002;18.316;2023-04-01T04:40:41;16.60;;;8.80;;
57341;SDS011;43175;51.002;18.316;2023-04-01T04:43:07;16.00;;;8.90;;
57341;SDS011;43175;51.002;18.316;2023-04-01T04:45:36;14.70;;;9.30;;
57341;SDS011;43175;51.002;18.316;2023-04-01T04:48:02;16.10;;;9.10;;
57341;SDS011;43175;51.002;18.316;2023-04-01T04:50:27;15.50;;;9.00;;
57341;SDS011;43175;51.002;18.316;2023-04-01T04:52:53;16.70;;;9.60;;
57341;SDS011;43175;51.002;18.316;2023-04-01T04:55:18;15.60;;;8.60;;
57341;SDS011;43175;51.002;18.316;2023-04-01T04:57:44;17.00;;;9.30;;
57341;SDS011;43175;51.002;18.316;2023-04-01T05:00:10;41.90;;;33.40;;
57341;SDS011;43175;51.002;18.316;2023-04-01T05:02:36;34.70;;;23.40;;
57341;SDS011;43175;51.002;18.316;2023-04-01T05:05:02;30.30;;;20.40;;
57341;SDS011;43175;51.002;18.316;2023-04-01T05:07:27;30.30;;;20.70;;
57341;SDS011;43175;51.002;18.316;2023-04-01T05:09:53;26.70;;;17.40;;
57341;SDS011;43175;51.002;18.316;2023-04-01T05:12:18;24.90;;;16.80;;
57341;SDS011;43175;51.002;18.316;2023-04-01T05:14:44;25.10;;;16.00;;
57341;SDS011;43175;51.002;18.316;2023-04-01T05:17:10;20.50;;;13.90;;
57341;SDS011;43175;51.002;18.316;2023-04-01T05:19:37;19.40;;;11.10;;
57341;SDS011;43175;51.002;18.316;2023-04-01T05:22:03;16.70;;;9.70;;
57341;SDS011;43175;51.002;18.316;2023-04-01T05:24:29;15.60;;;9.30;;
57341;SDS011;43175;51.002;18.316;2023-04-01T05:26:55;17.30;;;9.70;;
57341;SDS011;43175;51.002;18.316;2023-04-01T05:29:22;15.80;;;8.90;;
57341;SDS011;43175;51.002;18.316;2023-04-01T05:31:49;14.90;;;8.60;;
57341;SDS011;43175;51.002;18.316;2023-04-01T05:34:15;15.30;;;7.90;;
57341;SDS011;43175;51.002;18.316;2023-04-01T05:36:40;15.10;;;8.00;;
57341;SDS011;43175;51.002;18.316;2023-04-01T05:39:08;14.80;;;8.40;;
57341;SDS011;43175;51.002;18.316;2023-04-01T05:41:37;14.30;;;7.90;;
57341;SDS011;43175;51.002;18.316;2023-04-01T05:44:04;16.50;;;8.70;;
57341;SDS011;43175;51.002;18.316;2023-04-01T05:46:30;15.40;;;8.60;;
57341;SDS011;43175;51.002;18.316;2023-04-01T05:48:56;15.60;;;9.20;;
57341;SDS011;43175;51.002;18.316;2023-04-01T05:51:22;17.30;;;10.00;;
57341;SDS011;43175;51.002;18.316;2023-04-01T05:53:47;21.50;;;13.30;;
57341;SDS011;43175;51.002;18.316;2023-04-01T05:56:13;24.20;;;17.70;;
57341;SDS011;43175;51.002;18.316;2023-04-01T05:58:38;18.00;;;11.40;;
57341;SDS011;43175;51.002;18.316;2023-04-01T06:01:05;16.40;;;9.00;;
57341;SDS011;43175;51.002;18.316;2023-04-01T06:03:32;16.00;;;8.60;;
57341;SDS011;43175;51.002;18.316;2023-04-01T06:05:57;15.30;;;8.60;;
57341;SDS011;43175;51.002;18.316;2023-04-01T06:08:23;13.30;;;7.30;;
57341;SDS011;43175;51.002;18.316;2023-04-01T06:19:30;15.10;;;8.10;;
57341;SDS011;43175;51.002;18.316;2023-04-01T06:28:00;14.30;;;7.70;;
57341;SDS011;43175;51.002;18.316;2023-04-01T06:33:20;14.20;;;7.60;;
57341;SDS011;43175;51.002;18.316;2023-04-01T06:36:05;13.50;;;7.30;;
57341;SDS011;43175;51.002;18.316;2023-04-01T06:41:43;13.00;;;7.10;;
57341;SDS011;43175;51.002;18.316;2023-04-01T06:44:31;15.70;;;8.30;;
57341;SDS011;43175;51.002;18.316;2023-04-01T06:53:08;15.90;;;8.00;;
57341;SDS011;43175;51.002;18.316;2023-04-01T06:55:38;16.20;;;8.40;;
57341;SDS011;43175;51.002;18.316;2023-04-01T06:58:16;13.50;;;7.10;;
57341;SDS011;43175;51.002;18.316;2023-04-01T07:00:46;16.10;;;7.70;;
57341;SDS011;43175;51.002;18.316;2023-04-01T07:05:43;14.20;;;7.70;;
57341;SDS011;43175;51.002;18.316;2023-04-01T07:08:10;17.70;;;8.60;;
57341;SDS011;43175;51.002;18.316;2023-04-01T07:13:43;16.00;;;9.00;;
57341;SDS011;43175;51.002;18.316;2023-04-01T07:16:03;17.10;;;9.40;;
57341;SDS011;43175;51.002;18.316;2023-04-01T07:18:36;19.80;;;9.90;;
57341;SDS011;43175;51.002;18.316;2023-04-01T07:21:16;19.00;;;9.30;;
57341;SDS011;43175;51.002;18.316;2023-04-01T07:23:47;12.60;;;6.60;;
57341;SDS011;43175;51.002;18.316;2023-04-01T07:26:20;15.80;;;8.30;;
57341;SDS011;43175;51.002;18.316;2023-04-01T07:28:47;26.70;;;12.60;;
57341;SDS011;43175;51.002;18.316;2023-04-01T07:31:25;22.50;;;10.70;;
57341;SDS011;43175;51.002;18.316;2023-04-01T07:39:18;24.50;;;11.90;;
57341;SDS011;43175;51.002;18.316;2023-04-01T07:42:05;26.90;;;13.50;;
57341;SDS011;43175;51.002;18.316;2023-04-01T07:44:43;20.00;;;9.60;;
57341;SDS011;43175;51.002;18.316;2023-04-01T07:55:22;16.90;;;9.10;;
57341;SDS011;43175;51.002;18.316;2023-04-01T08:06:04;14.50;;;7.70;;
57341;SDS011;43175;51.002;18.316;2023-04-01T08:08:56;14.90;;;6.90;;
57341;SDS011;43175;51.002;18.316;2023-04-01T08:20:41;11.20;;;5.50;;
57341;SDS011;43175;51.002;18.316;2023-04-01T08:22:51;12.30;;;5.30;;
57341;SDS011;43175;51.002;18.316;2023-04-01T08:25:24;10.80;;;4.90;;
57341;SDS011;43175;51.002;18.316;2023-04-01T08:28:03;14.60;;;6.30;;
57341;SDS011;43175;51.002;18.316;2023-04-01T08:33:29;12.30;;;6.30;;
57341;SDS011;43175;51.002;18.316;2023-04-01T08:38:43;11.20;;;4.50;;
57341;SDS011;43175;51.002;18.316;2023-04-01T08:52:49;11.00;;;5.10;;
57341;SDS011;43175;51.002;18.316;2023-04-01T08:58:07;11.50;;;6.10;;
57341;SDS011;43175;51.002;18.316;2023-04-01T09:00:39;12.00;;;6.00;;
57341;SDS011;43175;51.002;18.316;2023-04-01T09:23:10;11.70;;;6.30;;
57341;SDS011;43175;51.002;18.316;2023-04-01T09:26:23;13.70;;;7.80;;
57341;SDS011;43175;51.002;18.316;2023-04-01T09:28:42;13.00;;;6.90;;
57341;SDS011;43175;51.002;18.316;2023-04-01T09:31:19;13.10;;;5.60;;
57341;SDS011;43175;51.002;18.316;2023-04-01T09:36:59;9.10;;;3.50;;
57341;SDS011;43175;51.002;18.316;2023-04-01T09:39:39;8.30;;;3.00;;
57341;SDS011;43175;51.002;18.316;2023-04-01T09:44:58;8.60;;;3.10;;
57341;SDS011;43175;51.002;18.316;2023-04-01T09:53:20;11.60;;;5.40;;
57341;SDS011;43175;51.002;18.316;2023-04-01T09:56:01;12.10;;;6.30;;
57341;SDS011;43175;51.002;18.316;2023-04-01T10:01:30;15.70;;;9.50;;
57341;SDS011;43175;51.002;18.316;2023-04-01T10:07:26;12.60;;;7.60;;
57341;SDS011;43175;51.002;18.316;2023-04-01T10:18:24;25.80;;;20.80;;
57341;SDS011;43175;51.002;18.316;2023-04-01T10:21:05;50.20;;;41.30;;
57341;SDS011;43175;51.002;18.316;2023-04-01T10:23:51;33.20;;;22.10;;
57341;SDS011;43175;51.002;18.316;2023-04-01T10:26:49;20.60;;;12.70;;
57341;SDS011;43175;51.002;18.316;2023-04-01T10:44:01;10.60;;;5.20;;
57341;SDS011;43175;51.002;18.316;2023-04-01T10:52:23;9.10;;;3.40;;
57341;SDS011;43175;51.002;18.316;2023-04-01T11:09:55;6.40;;;2.20;;
57341;SDS011;43175;51.002;18.316;2023-04-01T11:18:11;10.90;;;4.00;;
57341;SDS011;43175;51.002;18.316;2023-04-01T11:32:05;12.10;;;4.50;;
57341;SDS011;43175;51.002;18.316;2023-04-01T11:34:49;11.50;;;4.10;;
57341;SDS011;43175;51.002;18.316;2023-04-01T11:43:07;10.20;;;4.30;;
57341;SDS011;43175;51.002;18.316;2023-04-01T11:45:53;10.20;;;5.20;;
57341;SDS011;43175;51.002;18.316;2023-04-01T11:48:32;11.40;;;5.50;;
57341;SDS011;43175;51.002;18.316;2023-04-01T11:51:16;11.60;;;4.70;;
57341;SDS011;43175;51.002;18.316;2023-04-01T12:07:53;11.80;;;5.70;;
57341;SDS011;43175;51.002;18.316;2023-04-01T12:10:26;11.30;;;5.70;;
57341;SDS011;43175;51.002;18.316;2023-04-01T12:13:04;13.20;;;6.10;;
57341;SDS011;43175;51.002;18.316;2023-04-01T12:15:42;11.70;;;6.00;;
57341;SDS011;43175;51.002;18.316;2023-04-01T12:18:20;13.20;;;6.90;;
57341;SDS011;43175;51.002;18.316;2023-04-01T12:20:49;12.50;;;6.80;;
57341;SDS011;43175;51.002;18.316;2023-04-01T12:23:30;11.30;;;5.40;;
57341;SDS011;43175;51.002;18.316;2023-04-01T12:29:14;13.40;;;5.90;;
57341;SDS011;43175;51.002;18.316;2023-04-01T12:42:57;10.90;;;5.20;;
57341;SDS011;43175;51.002;18.316;2023-04-01T12:45:32;13.10;;;6.70;;
57341;SDS011;43175;51.002;18.316;2023-04-01T12:48:05;11.70;;;5.80;;
57341;SDS011;43175;51.002;18.316;2023-04-01T12:50:53;14.40;;;7.60;;
57341;SDS011;43175;51.002;18.316;2023-04-01T12:53:59;13.10;;;7.30;;
57341;SDS011;43175;51.002;18.316;2023-04-01T12:56:35;17.00;;;8.80;;
57341;SDS011;43175;51.002;18.316;2023-04-01T12:59:30;13.90;;;7.60;;
57341;SDS011;43175;51.002;18.316;2023-04-01T13:02:25;11.90;;;6.00;;
57341;SDS011;43175;51.002;18.316;2023-04-01T13:07:47;12.10;;;6.40;;
57341;SDS011;43175;51.002;18.316;2023-04-01T13:18:55;11.10;;;5.30;;
57341;SDS011;43175;51.002;18.316;2023-04-01T13:30:00;10.50;;;5.20;;
57341;SDS011;43175;51.002;18.316;2023-04-01T13:41:21;13.20;;;6.60;;
57341;SDS011;43175;51.002;18.316;2023-04-01T13:43:54;11.30;;;5.80;;
57341;SDS011;43175;51.002;18.316;2023-04-01T13:55:21;11.10;;;5.80;;
57341;SDS011;43175;51.002;18.316;2023-04-01T14:06:09;11.80;;;5.20;;
57341;SDS011;43175;51.002;18.316;2023-04-01T14:12:14;11.50;;;5.30;;
57341;SDS011;43175;51.002;18.316;2023-04-01T14:25:46;8.60;;;3.00;;
57341;SDS011;43175;51.002;18.316;2023-04-01T14:34:59;7.90;;;2.50;;
57341;SDS011;43175;51.002;18.316;2023-04-01T14:46:44;8.60;;;2.60;;
57341;SDS011;43175;51.002;18.316;2023-04-01T14:49:15;9.40;;;3.00;;
57341;SDS011;43175;51.002;18.316;2023-04-01T14:51:45;10.80;;;4.00;;
57341;SDS011;43175;51.002;18.316;2023-04-01T14:56:37;10.50;;;3.60;;
57341;SDS011;43175;51.002;18.316;2023-04-01T14:59:07;11.80;;;4.40;;
57341;SDS011;43175;51.002;18.316;2023-04-01T15:01:37;11.00;;;4.90;;
57341;SDS011;43175;51.002;18.316;2023-04-01T15:09:52;11.30;;;4.80;;
57341;SDS011;43175;51.002;18.316;2023-04-01T15:12:27;11.70;;;5.20;;
57341;SDS011;43175;51.002;18.316;2023-04-01T15:31:30;17.50;;;9.60;;
57341;SDS011;43175;51.002;18.316;2023-04-01T15:45:06;18.40;;;10.20;;
57341;SDS011;43175;51.002;18.316;2023-04-01T15:47:42;19.00;;;10.50;;
57341;SDS011;43175;51.002;18.316;2023-04-01T15:50:21;21.70;;;11.60;;
57341;SDS011;43175;51.002;18.316;2023-04-01T15:55:26;24.30;;;13.40;;
57341;SDS011;43175;51.002;18.316;2023-04-01T15:58:21;27.40;;;14.50;;
57341;SDS011;43175;51.002;18.316;2023-04-01T16:00:56;28.70;;;14.50;;
57341;SDS011;43175;51.002;18.316;2023-04-01T16:06:18;28.80;;;16.40;;
57341;SDS011;43175;51.002;18.316;2023-04-01T16:09:05;32.60;;;20.50;;
57341;SDS011;43175;51.002;18.316;2023-04-01T16:17:33;22.90;;;13.80;;
57341;SDS011;43175;51.002;18.316;2023-04-01T16:23:00;27.80;;;14.30;;
57341;SDS011;43175;51.002;18.316;2023-04-01T16:25:32;29.80;;;18.10;;
57341;SDS011;43175;51.002;18.316;2023-04-01T16:31:03;31.10;;;17.20;;
57341;SDS011;43175;51.002;18.316;2023-04-01T16:33:47;32.00;;;18.50;;
57341;SDS011;43175;51.002;18.316;2023-04-01T16:36:24;31.70;;;16.30;;
57341;SDS011;43175;51.002;18.316;2023-04-01T16:39:09;29.10;;;15.60;;
57341;SDS011;43175;51.002;18.316;2023-04-01T16:41:47;20.30;;;10.30;;
57341;SDS011;43175;51.002;18.316;2023-04-01T16:44:19;14.40;;;6.90;;
57341;SDS011;43175;51.002;18.316;2023-04-01T16:50:25;14.70;;;7.50;;
57341;SDS011;43175;51.002;18.316;2023-04-01T16:52:58;15.60;;;6.70;;
57341;SDS011;43175;51.002;18.316;2023-04-01T16:55:34;17.80;;;11.30;;
57341;SDS011;43175;51.002;18.316;2023-04-01T17:01:04;17.00;;;9.70;;
57341;SDS011;43175;51.002;18.316;2023-04-01T17:03:38;20.60;;;11.90;;
57341;SDS011;43175;51.002;18.316;2023-04-01T17:06:14;20.20;;;11.70;;
57341;SDS011;43175;51.002;18.316;2023-04-01T17:11:41;27.10;;;16.00;;
57341;SDS011;43175;51.002;18.316;2023-04-01T17:19:55;30.80;;;20.10;;
57341;SDS011;43175;51.002;18.316;2023-04-01T17:43:53;36.30;;;22.30;;
57341;SDS011;43175;51.002;18.316;2023-04-01T17:49:22;36.00;;;22.00;;
57341;SDS011;43175;51.002;18.316;2023-04-01T17:54:24;39.80;;;23.00;;
57341;SDS011;43175;51.002;18.316;2023-04-01T18:02:36;39.20;;;22.60;;
57341;SDS011;43175;51.002;18.316;2023-04-01T18:10:41;40.00;;;24.10;;
57341;SDS011;43175;51.002;18.316;2023-04-01T18:18:43;40.60;;;24.40;;
57341;SDS011;43175;51.002;18.316;2023-04-01T18:21:17;41.40;;;24.50;;
57341;SDS011;43175;51.002;18.316;2023-04-01T18:23:55;39.50;;;24.30;;
57341;SDS011;43175;51.002;18.316;2023-04-01T18:26:24;41.90;;;23.60;;
57341;SDS011;43175;51.002;18.316;2023-04-01T18:29:10;40.10;;;23.80;;
57341;SDS011;43175;51.002;18.316;2023-04-01T18:37:50;43.20;;;25.30;;
57341;SDS011;43175;51.002;18.316;2023-04-01T18:43:35;46.50;;;26.20;;
57341;SDS011;43175;51.002;18.316;2023-04-01T18:46:21;49.20;;;26.50;;
57341;SDS011;43175;51.002;18.316;2023-04-01T18:48:59;48.10;;;27.30;;
57341;SDS011;43175;51.002;18.316;2023-04-01T18:51:52;47.10;;;27.60;;
57341;SDS011;43175;51.002;18.316;2023-04-01T18:54:42;46.00;;;26.40;;
57341;SDS011;43175;51.002;18.316;2023-04-01T18:57:16;45.90;;;25.50;;
57341;SDS011;43175;51.002;18.316;2023-04-01T18:59:45;45.10;;;26.10;;
57341;SDS011;43175;51.002;18.316;2023-04-01T19:02:19;43.80;;;25.40;;
57341;SDS011;43175;51.002;18.316;2023-04-01T19:05:17;47.30;;;26.70;;
57341;SDS011;43175;51.002;18.316;2023-04-01T19:07:45;47.00;;;26.00;;
57341;SDS011;43175;51.002;18.316;2023-04-01T19:15:44;47.80;;;25.10;;
57341;SDS011;43175;51.002;18.316;2023-04-01T19:23:48;51.80;;;25.70;;
57341;SDS011;43175;51.002;18.316;2023-04-01T19:35:06;45.00;;;25.20;;
57341;SDS011;43175;51.002;18.316;2023-04-01T19:40:16;44.80;;;24.80;;
57341;SDS011;43175;51.002;18.316;2023-04-01T19:42:59;44.20;;;25.10;;
57341;SDS011;43175;51.002;18.316;2023-04-01T19:45:51;44.60;;;24.00;;
57341;SDS011;43175;51.002;18.316;2023-04-01T19:51:09;48.30;;;26.20;;
57341;SDS011;43175;51.002;18.316;2023-04-01T19:53:46;46.90;;;26.80;;
57341;SDS011;43175;51.002;18.316;2023-04-01T19:56:31;49.10;;;25.90;;
57341;SDS011;43175;51.002;18.316;2023-04-01T20:04:45;50.00;;;27.30;;
57341;SDS011;43175;51.002;18.316;2023-04-01T20:10:05;50.40;;;26.50;;
57341;SDS011;43175;51.002;18.316;2023-04-01T20:15:40;48.70;;;26.30;;
57341;SDS011;43175;51.002;18.316;2023-04-01T20:18:15;46.90;;;25.40;;
57341;SDS011;43175;51.002;18.316;2023-04-01T20:26:24;42.40;;;24.00;;
57341;SDS011;43175;51.002;18.316;2023-04-01T20:34:32;44.00;;;22.90;;
57341;SDS011;43175;51.002;18.316;2023-04-01T20:37:12;45.90;;;24.50;;
57341;SDS011;43175;51.002;18.316;2023-04-01T20:45:34;48.50;;;25.20;;
57341;SDS011;43175;51.002;18.316;2023-04-01T20:51:13;45.50;;;24.30;;
57341;SDS011;43175;51.002;18.316;2023-04-01T20:53:49;44.10;;;23.80;;
57341;SDS011;43175;51.002;18.316;2023-04-01T21:01:37;51.60;;;27.10;;
57341;SDS011;43175;51.002;18.316;2023-04-01T21:09:14;50.90;;;27.40;;
57341;SDS011;43175;51.002;18.316;2023-04-01T21:19:56;47.00;;;25.00;;
57341;SDS011;43175;51.002;18.316;2023-04-01T21:25:42;44.10;;;23.60;;
57341;SDS011;43175;51.002;18.316;2023-04-01T21:28:29;41.50;;;22.10;;
57341;SDS011;43175;51.002;18.316;2023-04-01T21:37:12;41.10;;;22.50;;
57341;SDS011;43175;51.002;18.316;2023-04-01T21:42:45;50.60;;;26.40;;
57341;SDS011;43175;51.002;18.316;2023-04-01T21:59:19;49.60;;;26.90;;
57341;SDS011;43175;51.002;18.316;2023-04-01T22:04:48;46.50;;;25.80;;
57341;SDS011;43175;51.002;18.316;2023-04-01T22:07:22;44.30;;;25.00;;
57341;SDS011;43175;51.002;18.316;2023-04-01T22:18:05;44.60;;;23.60;;
57341;SDS011;43175;51.002;18.316;2023-04-01T22:20:50;44.60;;;24.20;;
57341;SDS011;43175;51.002;18.316;2023-04-01T22:26:24;46.60;;;25.10;;
57341;SDS011;43175;51.002;18.316;2023-04-01T22:31:53;47.60;;;24.60;;
57341;SDS011;43175;51.002;18.316;2023-04-01T22:34:31;44.80;;;24.70;;
57341;SDS011;43175;51.002;18.316;2023-04-01T22:39:54;43.60;;;24.00;;
57341;SDS011;43175;51.002;18.316;2023-04-01T22:48:10;51.00;;;26.50;;
57341;SDS011;43175;51.002;18.316;2023-04-01T22:56:07;43.70;;;23.70;;
57341;SDS011;43175;51.002;18.316;2023-04-01T22:58:42;41.00;;;23.00;;
57341;SDS011;43175;51.002;18.316;2023-04-01T23:01:24;40.70;;;23.10;;
57341;SDS011;43175;51.002;18.316;2023-04-01T23:03:51;41.80;;;23.40;;
57341;SDS011;43175;51.002;18.316;2023-04-01T23:06:19;39.00;;;22.40;;
57341;SDS011;43175;51.002;18.316;2023-04-01T23:11:46;41.00;;;23.20;;
57341;SDS011;43175;51.002;18.316;2023-04-01T23:16:56;40.30;;;22.90;;
57341;SDS011;43175;51.002;18.316;2023-04-01T23:19:46;40.20;;;23.10;;
57341;SDS011;43175;51.002;18.316;2023-04-01T23:28:39;39.90;;;22.00;;
57341;SDS011;43175;51.002;18.316;2023-04-01T23:33:59;43.20;;;22.70;;
57341;SDS011;43175;51.002;18.316;2023-04-01T23:36:27;38.80;;;22.40;;
57341;SDS011;43175;51.002;18.316;2023-04-01T23:38:53;40.90;;;23.70;;
57341;SDS011;43175;51.002;18.316;2023-04-01T23:41:27;47.50;;;25.20;;
57341;SDS011;43175;51.002;18.316;2023-04-01T23:43:58;45.40;;;24.60;;
57341;SDS011;43175;51.002;18.316;2023-04-01T23:46:26;42.20;;;23.80;;
57341;SDS011;43175;51.002;18.316;2023-04-01T23:48:52;37.20;;;22.00;;
57341;SDS011;43175;51.002;18.316;2023-04-01T23:51:37;41.40;;;22.10;;
57341;SDS011;43175;51.002;18.316;2023-04-01T23:54:29;41.10;;;22.50;;
57341;SDS011;43175;51.002;18.316;2023-04-01T23:56:57;43.70;;;24.20;;
57341;SDS011;43175;51.002;18.316;2023-04-01T23:59:23;41.70;;;22.80;;
